sensor_id;sensor_type;location;lat;lon;timestamp;pressure;altitude;pressure_sealevel;temperature;humidity
15817;BME280;8009;50.070;8.232;2023-08-30T00:01:21;99300.31;;;17.72;63.21
15817;BME280;8009;50.070;8.232;2023-08-30T00:03:49;99299.63;;;18.09;62.32
15817;BME280;8009;50.070;8.232;2023-08-30T00:06:18;99303.69;;;18.13;62.10
15817;BME280;8009;50.070;8.232;2023-08-30T00:08:47;99301.44;;;18.17;61.60
15817;BME280;8009;50.070;8.232;2023-08-30T00:11:18;99307.69;;;18.02;62.52
15817;BME280;8009;50.070;8.232;2023-08-30T00:13:47;99303.78;;;18.20;62.35
15817;BME280;8009;50.070;8.232;2023-08-30T00:16:16;99298.16;;;18.21;62.11
15817;BME280;8009;50.070;8.232;2023-08-30T00:18:46;99298.47;;;18.26;62.51
15817;BME280;8009;50.070;8.232;2023-08-30T00:21:16;99306.09;;;18.31;61.46
15817;BME280;8009;50.070;8.232;2023-08-30T00:23:46;99298.16;;;18.44;61.31
15817;BME280;8009;50.070;8.232;2023-08-30T00:26:17;99299.91;;;18.14;63.01
15817;BME280;8009;50.070;8.232;2023-08-30T00:28:46;99300.34;;;18.26;62.49
15817;BME280;8009;50.070;8.232;2023-08-30T00:31:16;99298.81;;;18.23;62.09
15817;BME280;8009;50.070;8.232;2023-08-30T00:33:45;99301.81;;;18.37;62.23
15817;BME280;8009;50.070;8.232;2023-08-30T00:36:13;99301.97;;;18.35;62.24
15817;BME280;8009;50.070;8.232;2023-08-30T00:38:43;99307.50;;;18.04;63.68
15817;BME280;8009;50.070;8.232;2023-08-30T00:41:12;99315.88;;;18.02;63.96
15817;BME280;8009;50.070;8.232;2023-08-30T00:43:43;99299.84;;;17.99;63.37
15817;BME280;8009;50.070;8.232;2023-08-30T00:46:09;99299.44;;;18.11;63.45
15817;BME280;8009;50.070;8.232;2023-08-30T00:48:38;99295.91;;;17.71;64.29
15817;BME280;8009;50.070;8.232;2023-08-30T00:51:06;99287.03;;;18.00;63.99
15817;BME280;8009;50.070;8.232;2023-08-30T00:53:35;99287.16;;;18.07;63.27
15817;BME280;8009;50.070;8.232;2023-08-30T00:56:03;99286.38;;;17.98;63.78
15817;BME280;8009;50.070;8.232;2023-08-30T00:58:34;99293.25;;;18.17;63.46
15817;BME280;8009;50.070;8.232;2023-08-30T01:01:05;99281.66;;;18.15;62.94
15817;BME280;8009;50.070;8.232;2023-08-30T01:03:34;99282.25;;;18.02;63.40
15817;BME280;8009;50.070;8.232;2023-08-30T01:06:05;99288.97;;;17.21;66.85
15817;BME280;8009;50.070;8.232;2023-08-30T01:08:33;99280.38;;;17.32;66.65
15817;BME280;8009;50.070;8.232;2023-08-30T01:11:11;99272.81;;;17.82;64.62
15817;BME280;8009;50.070;8.232;2023-08-30T01:14:04;99275.69;;;18.11;64.39
15817;BME280;8009;50.070;8.232;2023-08-30T01:16:37;99269.56;;;17.86;64.88
15817;BME280;8009;50.070;8.232;2023-08-30T01:19:19;99272.59;;;17.60;65.29
15817;BME280;8009;50.070;8.232;2023-08-30T01:22:02;99268.75;;;17.38;66.38
15817;BME280;8009;50.070;8.232;2023-08-30T01:24:41;99270.63;;;16.90;67.95
15817;BME280;8009;50.070;8.232;2023-08-30T01:27:19;99259.59;;;16.84;68.34
15817;BME280;8009;50.070;8.232;2023-08-30T01:29:49;99259.44;;;16.61;69.08
15817;BME280;8009;50.070;8.232;2023-08-30T01:32:18;99258.56;;;16.68;69.22
15817;BME280;8009;50.070;8.232;2023-08-30T01:34:51;99266.09;;;16.33;70.04
15817;BME280;8009;50.070;8.232;2023-08-30T01:37:19;99262.16;;;16.36;69.80
15817;BME280;8009;50.070;8.232;2023-08-30T01:39:51;99258.22;;;16.63;68.17
15817;BME280;8009;50.070;8.232;2023-08-30T01:42:50;99267.78;;;16.35;69.32
15817;BME280;8009;50.070;8.232;2023-08-30T01:48:32;99257.59;;;16.45;68.98
15817;BME280;8009;50.070;8.232;2023-08-30T01:51:03;99251.06;;;16.78;68.11
15817;BME280;8009;50.070;8.232;2023-08-30T01:53:32;99251.13;;;16.29;69.53
15817;BME280;8009;50.070;8.232;2023-08-30T01:56:13;99251.28;;;16.28;70.00
15817;BME280;8009;50.070;8.232;2023-08-30T01:58:45;99258.06;;;16.40;69.97
15817;BME280;8009;50.070;8.232;2023-08-30T02:01:14;99249.22;;;16.79;68.62
15817;BME280;8009;50.070;8.232;2023-08-30T02:03:43;99253.59;;;17.36;65.81
15817;BME280;8009;50.070;8.232;2023-08-30T02:06:21;99253.38;;;17.06;67.05
15817;BME280;8009;50.070;8.232;2023-08-30T02:15:41;99247.84;;;16.50;69.03
15817;BME280;8009;50.070;8.232;2023-08-30T02:18:14;99242.38;;;16.75;66.92
15817;BME280;8009;50.070;8.232;2023-08-30T02:20:43;99244.28;;;16.42;68.96
15817;BME280;8009;50.070;8.232;2023-08-30T02:23:12;99239.84;;;16.73;68.84
15817;BME280;8009;50.070;8.232;2023-08-30T02:25:44;99246.53;;;16.30;69.02
15817;BME280;8009;50.070;8.232;2023-08-30T02:28:12;99237.44;;;17.26;65.66
15817;BME280;8009;50.070;8.232;2023-08-30T02:30:43;99237.72;;;17.00;66.53
15817;BME280;8009;50.070;8.232;2023-08-30T02:33:12;99238.78;;;17.61;64.38
15817;BME280;8009;50.070;8.232;2023-08-30T02:35:42;99237.69;;;17.78;64.24
15817;BME280;8009;50.070;8.232;2023-08-30T02:38:10;99236.31;;;17.83;64.49
15817;BME280;8009;50.070;8.232;2023-08-30T02:40:39;99236.41;;;16.71;67.00
15817;BME280;8009;50.070;8.232;2023-08-30T02:43:11;99236.75;;;17.24;66.46
15817;BME280;8009;50.070;8.232;2023-08-30T02:45:46;99243.69;;;17.66;64.59
15817;BME280;8009;50.070;8.232;2023-08-30T02:48:17;99246.19;;;17.84;64.34
15817;BME280;8009;50.070;8.232;2023-08-30T02:50:49;99239.69;;;17.22;65.83
15817;BME280;8009;50.070;8.232;2023-08-30T02:53:19;99241.72;;;17.20;66.23
15817;BME280;8009;50.070;8.232;2023-08-30T02:55:48;99239.78;;;17.68;65.13
15817;BME280;8009;50.070;8.232;2023-08-30T02:58:16;99238.00;;;17.84;63.95
15817;BME280;8009;50.070;8.232;2023-08-30T03:00:48;99227.44;;;17.81;64.34
15817;BME280;8009;50.070;8.232;2023-08-30T03:03:16;99239.50;;;16.60;68.57
15817;BME280;8009;50.070;8.232;2023-08-30T03:05:47;99250.06;;;16.71;68.32
15817;BME280;8009;50.070;8.232;2023-08-30T03:08:15;99254.50;;;16.40;69.75
15817;BME280;8009;50.070;8.232;2023-08-30T03:10:44;99243.06;;;16.69;68.73
15817;BME280;8009;50.070;8.232;2023-08-30T03:13:12;99235.00;;;17.00;67.31
15817;BME280;8009;50.070;8.232;2023-08-30T03:15:41;99232.13;;;17.33;65.63
15817;BME280;8009;50.070;8.232;2023-08-30T03:18:14;99230.09;;;17.26;65.74
15817;BME280;8009;50.070;8.232;2023-08-30T03:20:42;99225.13;;;16.99;66.37
15817;BME280;8009;50.070;8.232;2023-08-30T03:23:13;99233.53;;;17.20;66.00
15817;BME280;8009;50.070;8.232;2023-08-30T03:25:43;99229.47;;;17.47;65.30
15817;BME280;8009;50.070;8.232;2023-08-30T03:28:11;99226.78;;;17.70;64.29
15817;BME280;8009;50.070;8.232;2023-08-30T03:37:34;99222.28;;;16.76;67.59
15817;BME280;8009;50.070;8.232;2023-08-30T03:40:03;99220.66;;;16.98;66.92
15817;BME280;8009;50.070;8.232;2023-08-30T04:01:47;99224.94;;;17.00;67.46
15817;BME280;8009;50.070;8.232;2023-08-30T04:07:29;99230.06;;;17.66;64.98
15817;BME280;8009;50.070;8.232;2023-08-30T04:10:00;99241.78;;;17.04;66.79
15817;BME280;8009;50.070;8.232;2023-08-30T04:12:43;99238.53;;;17.09;66.71
15817;BME280;8009;50.070;8.232;2023-08-30T04:15:11;99242.09;;;16.21;70.16
15817;BME280;8009;50.070;8.232;2023-08-30T04:17:43;99251.28;;;16.20;69.87
15817;BME280;8009;50.070;8.232;2023-08-30T04:32:58;99224.97;;;16.92;67.76
15817;BME280;8009;50.070;8.232;2023-08-30T04:35:28;99225.34;;;17.20;66.21
15817;BME280;8009;50.070;8.232;2023-08-30T04:37:57;99225.53;;;17.50;65.55
15817;BME280;8009;50.070;8.232;2023-08-30T04:40:26;99221.88;;;17.35;66.26
15817;BME280;8009;50.070;8.232;2023-08-30T04:42:55;99217.00;;;17.53;65.81
15817;BME280;8009;50.070;8.232;2023-08-30T04:52:02;99234.47;;;17.44;65.93
15817;BME280;8009;50.070;8.232;2023-08-30T04:54:32;99232.28;;;17.31;67.29
15817;BME280;8009;50.070;8.232;2023-08-30T04:57:00;99229.13;;;17.50;66.52
15817;BME280;8009;50.070;8.232;2023-08-30T05:15:31;99220.72;;;17.29;68.05
15817;BME280;8009;50.070;8.232;2023-08-30T05:18:01;99227.59;;;16.28;71.13
15817;BME280;8009;50.070;8.232;2023-08-30T05:20:30;99220.09;;;16.55;70.51
15817;BME280;8009;50.070;8.232;2023-08-30T05:22:58;99214.63;;;16.71;69.38
15817;BME280;8009;50.070;8.232;2023-08-30T05:25:27;99232.22;;;15.95;72.42
15817;BME280;8009;50.070;8.232;2023-08-30T05:27:57;99221.50;;;15.94;72.89
15817;BME280;8009;50.070;8.232;2023-08-30T05:30:26;99226.94;;;16.35;71.46
15817;BME280;8009;50.070;8.232;2023-08-30T05:36:08;99225.50;;;16.71;69.87
15817;BME280;8009;50.070;8.232;2023-08-30T05:38:36;99223.38;;;16.98;69.00
15817;BME280;8009;50.070;8.232;2023-08-30T05:41:05;99217.47;;;17.34;67.50
15817;BME280;8009;50.070;8.232;2023-08-30T05:43:33;99223.66;;;17.50;67.63
15817;BME280;8009;50.070;8.232;2023-08-30T05:46:01;99217.63;;;17.63;66.97
15817;BME280;8009;50.070;8.232;2023-08-30T05:48:37;99210.34;;;17.56;67.16
15817;BME280;8009;50.070;8.232;2023-08-30T05:51:10;99212.66;;;17.67;67.44
15817;BME280;8009;50.070;8.232;2023-08-30T05:53:39;99219.03;;;17.59;67.92
15817;BME280;8009;50.070;8.232;2023-08-30T05:56:07;99220.88;;;17.27;69.37
15817;BME280;8009;50.070;8.232;2023-08-30T05:58:35;99226.28;;;17.36;68.28
15817;BME280;8009;50.070;8.232;2023-08-30T06:01:04;99229.47;;;17.16;69.30
15817;BME280;8009;50.070;8.232;2023-08-30T06:03:33;99234.03;;;17.24;69.63
15817;BME280;8009;50.070;8.232;2023-08-30T06:06:02;99230.75;;;17.37;69.04
15817;BME280;8009;50.070;8.232;2023-08-30T06:08:32;99224.34;;;17.21;69.41
15817;BME280;8009;50.070;8.232;2023-08-30T06:11:01;99223.59;;;17.67;67.84
15817;BME280;8009;50.070;8.232;2023-08-30T06:13:29;99221.84;;;17.97;67.91
15817;BME280;8009;50.070;8.232;2023-08-30T06:15:57;99219.25;;;17.18;70.07
15817;BME280;8009;50.070;8.232;2023-08-30T06:18:29;99221.75;;;16.80;70.99
15817;BME280;8009;50.070;8.232;2023-08-30T06:20:58;99230.03;;;17.03;69.96
15817;BME280;8009;50.070;8.232;2023-08-30T06:23:26;99229.47;;;16.44;71.17
15817;BME280;8009;50.070;8.232;2023-08-30T06:25:57;99225.50;;;16.63;70.89
15817;BME280;8009;50.070;8.232;2023-08-30T06:28:28;99235.63;;;16.22;72.27
15817;BME280;8009;50.070;8.232;2023-08-30T06:30:59;99233.41;;;16.33;72.41
15817;BME280;8009;50.070;8.232;2023-08-30T06:33:27;99230.44;;;16.84;70.62
15817;BME280;8009;50.070;8.232;2023-08-30T06:36:01;99223.13;;;16.76;70.41
15817;BME280;8009;50.070;8.232;2023-08-30T06:41:45;99238.66;;;16.76;71.32
15817;BME280;8009;50.070;8.232;2023-08-30T06:44:16;99233.53;;;17.20;69.83
15817;BME280;8009;50.070;8.232;2023-08-30T06:46:57;99237.88;;;17.77;67.65
15817;BME280;8009;50.070;8.232;2023-08-30T06:49:26;99233.09;;;18.02;66.99
15817;BME280;8009;50.070;8.232;2023-08-30T06:51:54;99223.38;;;17.76;67.94
15817;BME280;8009;50.070;8.232;2023-08-30T06:54:22;99222.81;;;18.04;67.04
15817;BME280;8009;50.070;8.232;2023-08-30T06:57:03;99215.31;;;18.06;66.47
15817;BME280;8009;50.070;8.232;2023-08-30T06:59:32;99209.69;;;18.22;66.46
15817;BME280;8009;50.070;8.232;2023-08-30T07:02:03;99215.06;;;18.31;66.00
15817;BME280;8009;50.070;8.232;2023-08-30T07:07:44;99216.44;;;18.49;66.16
15817;BME280;8009;50.070;8.232;2023-08-30T07:17:06;99217.94;;;18.37;66.13
15817;BME280;8009;50.070;8.232;2023-08-30T07:22:46;99208.38;;;17.95;67.36
15817;BME280;8009;50.070;8.232;2023-08-30T07:25:15;99205.00;;;18.31;66.25
15817;BME280;8009;50.070;8.232;2023-08-30T07:27:51;99200.28;;;18.25;66.35
15817;BME280;8009;50.070;8.232;2023-08-30T07:30:19;99202.03;;;18.56;66.28
15817;BME280;8009;50.070;8.232;2023-08-30T07:32:50;99196.41;;;18.72;65.81
15817;BME280;8009;50.070;8.232;2023-08-30T07:35:19;99205.25;;;19.04;65.39
15817;BME280;8009;50.070;8.232;2023-08-30T07:37:51;99210.47;;;18.08;67.20
15817;BME280;8009;50.070;8.232;2023-08-30T07:40:20;99214.75;;;17.88;68.75
15817;BME280;8009;50.070;8.232;2023-08-30T07:42:51;99209.06;;;17.97;67.46
15817;BME280;8009;50.070;8.232;2023-08-30T07:45:21;99204.50;;;18.27;67.13
15817;BME280;8009;50.070;8.232;2023-08-30T07:47:52;99210.84;;;18.43;65.94
15817;BME280;8009;50.070;8.232;2023-08-30T07:50:24;99202.28;;;18.46;66.27
15817;BME280;8009;50.070;8.232;2023-08-30T07:52:52;99206.47;;;18.19;66.21
15817;BME280;8009;50.070;8.232;2023-08-30T07:55:21;99206.91;;;18.45;66.15
15817;BME280;8009;50.070;8.232;2023-08-30T07:57:49;99212.50;;;18.14;69.68
15817;BME280;8009;50.070;8.232;2023-08-30T08:00:18;99208.34;;;18.18;66.60
15817;BME280;8009;50.070;8.232;2023-08-30T08:02:49;99204.38;;;18.06;67.46
15817;BME280;8009;50.070;8.232;2023-08-30T08:05:20;99201.66;;;18.06;68.27
15817;BME280;8009;50.070;8.232;2023-08-30T08:07:51;99203.88;;;18.25;67.64
15817;BME280;8009;50.070;8.232;2023-08-30T08:10:25;99202.84;;;17.81;67.71
15817;BME280;8009;50.070;8.232;2023-08-30T08:12:55;99201.16;;;18.02;67.29
15817;BME280;8009;50.070;8.232;2023-08-30T08:15:26;99207.22;;;18.13;67.91
15817;BME280;8009;50.070;8.232;2023-08-30T08:17:55;99212.97;;;18.56;66.51
15817;BME280;8009;50.070;8.232;2023-08-30T08:20:29;99201.25;;;18.62;65.84
15817;BME280;8009;50.070;8.232;2023-08-30T08:22:58;99198.78;;;18.90;65.00
15817;BME280;8009;50.070;8.232;2023-08-30T08:42:10;99211.13;;;18.33;64.20
15817;BME280;8009;50.070;8.232;2023-08-30T08:44:41;99211.66;;;18.66;64.66
15817;BME280;8009;50.070;8.232;2023-08-30T08:47:20;99218.88;;;19.12;62.99
15817;BME280;8009;50.070;8.232;2023-08-30T08:49:50;99223.09;;;18.85;63.35
15817;BME280;8009;50.070;8.232;2023-08-30T08:52:20;99220.59;;;18.60;64.89
15817;BME280;8009;50.070;8.232;2023-08-30T08:54:49;99213.78;;;19.45;62.13
15817;BME280;8009;50.070;8.232;2023-08-30T09:10:24;99196.59;;;19.66;61.96
15817;BME280;8009;50.070;8.232;2023-08-30T09:12:53;99201.34;;;19.79;62.41
15817;BME280;8009;50.070;8.232;2023-08-30T09:15:29;99199.16;;;19.89;62.21
15817;BME280;8009;50.070;8.232;2023-08-30T09:27:56;99183.94;;;19.65;62.89
15817;BME280;8009;50.070;8.232;2023-08-30T09:33:37;99180.22;;;19.94;60.66
15817;BME280;8009;50.070;8.232;2023-08-30T09:36:09;99176.38;;;20.10;62.01
15817;BME280;8009;50.070;8.232;2023-08-30T09:38:38;99168.88;;;20.47;60.79
15817;BME280;8009;50.070;8.232;2023-08-30T09:41:06;99163.38;;;20.18;60.75
15817;BME280;8009;50.070;8.232;2023-08-30T09:43:41;99166.75;;;20.20;59.88
15817;BME280;8009;50.070;8.232;2023-08-30T09:46:11;99153.34;;;20.32;60.95
15817;BME280;8009;50.070;8.232;2023-08-30T09:52:10;99153.34;;;20.54;61.03
15817;BME280;8009;50.070;8.232;2023-08-30T09:54:41;99149.13;;;20.92;58.94
15817;BME280;8009;50.070;8.232;2023-08-30T09:57:10;99144.53;;;21.00;57.78
15817;BME280;8009;50.070;8.232;2023-08-30T09:59:42;99140.81;;;20.73;58.38
15817;BME280;8009;50.070;8.232;2023-08-30T10:02:11;99138.28;;;20.78;58.66
15817;BME280;8009;50.070;8.232;2023-08-30T10:04:44;99132.53;;;20.66;57.16
15817;BME280;8009;50.070;8.232;2023-08-30T10:07:13;99129.75;;;21.01;57.71
15817;BME280;8009;50.070;8.232;2023-08-30T10:09:43;99120.94;;;21.18;57.84
15817;BME280;8009;50.070;8.232;2023-08-30T10:15:31;99133.97;;;20.06;59.62
15817;BME280;8009;50.070;8.232;2023-08-30T10:18:16;99124.66;;;20.56;57.73
15817;BME280;8009;50.070;8.232;2023-08-30T10:20:47;99122.13;;;20.55;59.42
15817;BME280;8009;50.070;8.232;2023-08-30T10:23:17;99121.38;;;20.11;59.52
15817;BME280;8009;50.070;8.232;2023-08-30T10:25:49;99127.53;;;20.20;58.74
15817;BME280;8009;50.070;8.232;2023-08-30T10:28:21;99115.69;;;20.13;58.48
15817;BME280;8009;50.070;8.232;2023-08-30T10:33:46;99116.81;;;19.97;59.94
15817;BME280;8009;50.070;8.232;2023-08-30T10:39:32;99108.75;;;20.17;58.92
15817;BME280;8009;50.070;8.232;2023-08-30T10:42:08;99102.97;;;20.33;58.48
15817;BME280;8009;50.070;8.232;2023-08-30T10:44:47;99101.91;;;20.62;57.44
15817;BME280;8009;50.070;8.232;2023-08-30T10:47:22;99094.34;;;21.19;56.19
15817;BME280;8009;50.070;8.232;2023-08-30T10:49:54;99091.09;;;21.97;53.55
15817;BME280;8009;50.070;8.232;2023-08-30T10:52:24;99092.59;;;21.79;54.10
15817;BME280;8009;50.070;8.232;2023-08-30T10:55:03;99088.97;;;21.65;52.93
15817;BME280;8009;50.070;8.232;2023-08-30T10:57:45;99088.13;;;22.05;52.04
15817;BME280;8009;50.070;8.232;2023-08-30T11:00:19;99082.63;;;22.51;51.90
15817;BME280;8009;50.070;8.232;2023-08-30T11:02:51;99070.13;;;22.55;51.74
15817;BME280;8009;50.070;8.232;2023-08-30T11:05:21;99074.78;;;22.42;50.74
15817;BME280;8009;50.070;8.232;2023-08-30T11:07:52;99066.97;;;22.12;51.42
15817;BME280;8009;50.070;8.232;2023-08-30T11:10:21;99073.34;;;21.66;52.72
15817;BME280;8009;50.070;8.232;2023-08-30T11:12:50;99080.50;;;21.54;53.96
15817;BME280;8009;50.070;8.232;2023-08-30T11:38:05;99038.09;;;23.19;47.09
15817;BME280;8009;50.070;8.232;2023-08-30T11:43:52;99040.53;;;22.31;46.11
15817;BME280;8009;50.070;8.232;2023-08-30T11:46:24;99029.34;;;22.91;45.99
15817;BME280;8009;50.070;8.232;2023-08-30T11:48:53;99030.81;;;22.08;47.60
15817;BME280;8009;50.070;8.232;2023-08-30T11:51:24;99022.53;;;22.42;47.02
15817;BME280;8009;50.070;8.232;2023-08-30T11:53:58;99028.13;;;22.73;47.78
15817;BME280;8009;50.070;8.232;2023-08-30T11:56:28;99024.41;;;23.06;49.61
15817;BME280;8009;50.070;8.232;2023-08-30T11:58:57;99027.47;;;23.23;44.56
15817;BME280;8009;50.070;8.232;2023-08-30T12:01:25;99030.34;;;23.03;44.97
15817;BME280;8009;50.070;8.232;2023-08-30T12:03:54;99025.59;;;22.72;44.50
15817;BME280;8009;50.070;8.232;2023-08-30T12:06:23;99023.75;;;23.10;44.42
15817;BME280;8009;50.070;8.232;2023-08-30T12:08:59;99013.13;;;23.14;44.42
15817;BME280;8009;50.070;8.232;2023-08-30T12:11:32;99019.59;;;22.88;45.39
15817;BME280;8009;50.070;8.232;2023-08-30T12:14:03;99026.63;;;22.77;45.98
15817;BME280;8009;50.070;8.232;2023-08-30T12:16:31;99015.59;;;22.84;45.75
15817;BME280;8009;50.070;8.232;2023-08-30T12:19:09;99017.84;;;23.00;46.20
15817;BME280;8009;50.070;8.232;2023-08-30T12:21:44;99024.50;;;22.86;45.46
15817;BME280;8009;50.070;8.232;2023-08-30T12:24:16;99022.03;;;23.16;45.68
15817;BME280;8009;50.070;8.232;2023-08-30T12:33:32;99006.66;;;22.88;45.99
15817;BME280;8009;50.070;8.232;2023-08-30T12:36:01;99015.44;;;22.72;46.61
15817;BME280;8009;50.070;8.232;2023-08-30T12:38:30;99014.97;;;22.30;43.08
15817;BME280;8009;50.070;8.232;2023-08-30T13:12:25;99004.63;;;21.26;44.22
15817;BME280;8009;50.070;8.232;2023-08-30T13:15:08;99009.25;;;21.19;44.05
15817;BME280;8009;50.070;8.232;2023-08-30T13:17:51;99009.09;;;21.67;45.32
15817;BME280;8009;50.070;8.232;2023-08-30T13:20:22;99006.78;;;21.51;46.80
15817;BME280;8009;50.070;8.232;2023-08-30T13:22:51;99002.50;;;22.01;44.79
15817;BME280;8009;50.070;8.232;2023-08-30T13:25:20;99002.50;;;22.01;43.67
15817;BME280;8009;50.070;8.232;2023-08-30T13:27:52;98999.75;;;22.01;44.49
15817;BME280;8009;50.070;8.232;2023-08-30T13:37:06;98994.06;;;21.89;44.63
15817;BME280;8009;50.070;8.232;2023-08-30T13:39:35;98994.06;;;21.96;45.74
15817;BME280;8009;50.070;8.232;2023-08-30T13:42:04;99006.31;;;21.94;45.25
15817;BME280;8009;50.070;8.232;2023-08-30T13:44:36;99000.66;;;21.49;45.81
15817;BME280;8009;50.070;8.232;2023-08-30T13:47:08;98994.47;;;21.27;45.93
15817;BME280;8009;50.070;8.232;2023-08-30T13:49:37;98997.88;;;21.82;45.15
15817;BME280;8009;50.070;8.232;2023-08-30T13:52:06;98999.34;;;22.04;44.89
15817;BME280;8009;50.070;8.232;2023-08-30T13:54:34;98991.22;;;22.43;45.81
15817;BME280;8009;50.070;8.232;2023-08-30T13:57:03;98991.94;;;22.25;45.83
15817;BME280;8009;50.070;8.232;2023-08-30T13:59:31;98991.53;;;22.21;46.75
15817;BME280;8009;50.070;8.232;2023-08-30T14:02:03;98984.34;;;22.00;45.41
15817;BME280;8009;50.070;8.232;2023-08-30T14:04:32;98986.84;;;22.22;45.53
15817;BME280;8009;50.070;8.232;2023-08-30T14:07:02;98983.28;;;21.95;46.14
15817;BME280;8009;50.070;8.232;2023-08-30T14:09:31;98983.69;;;22.70;46.15
15817;BME280;8009;50.070;8.232;2023-08-30T14:15:10;98981.78;;;22.19;47.67
15817;BME280;8009;50.070;8.232;2023-08-30T14:17:41;98979.31;;;21.64;46.65
15817;BME280;8009;50.070;8.232;2023-08-30T14:20:10;98984.75;;;22.04;44.54
15817;BME280;8009;50.070;8.232;2023-08-30T14:22:39;98980.22;;;22.36;45.61
15817;BME280;8009;50.070;8.232;2023-08-30T14:25:08;98985.06;;;22.47;45.22
15817;BME280;8009;50.070;8.232;2023-08-30T14:27:53;98982.19;;;22.29;45.27
15817;BME280;8009;50.070;8.232;2023-08-30T14:30:22;98992.81;;;21.65;46.66
15817;BME280;8009;50.070;8.232;2023-08-30T14:32:53;98981.16;;;22.03;46.54
15817;BME280;8009;50.070;8.232;2023-08-30T14:35:22;98981.34;;;22.22;44.67
15817;BME280;8009;50.070;8.232;2023-08-30T14:37:52;98982.00;;;21.97;45.99
15817;BME280;8009;50.070;8.232;2023-08-30T14:40:22;98978.63;;;22.02;45.91
15817;BME280;8009;50.070;8.232;2023-08-30T14:42:53;98981.09;;;22.36;45.61
15817;BME280;8009;50.070;8.232;2023-08-30T14:45:21;98977.13;;;22.26;45.51
15817;BME280;8009;50.070;8.232;2023-08-30T14:47:53;98965.00;;;22.40;45.25
15817;BME280;8009;50.070;8.232;2023-08-30T14:50:22;98964.97;;;22.47;45.02
15817;BME280;8009;50.070;8.232;2023-08-30T14:52:50;98965.31;;;22.63;45.20
15817;BME280;8009;50.070;8.232;2023-08-30T14:55:20;98966.34;;;22.11;45.53
15817;BME280;8009;50.070;8.232;2023-08-30T14:57:50;98963.88;;;21.76;45.22
15817;BME280;8009;50.070;8.232;2023-08-30T16:02:14;98956.50;;;21.50;46.89
15817;BME280;8009;50.070;8.232;2023-08-30T16:05:01;98962.19;;;21.35;45.74
15817;BME280;8009;50.070;8.232;2023-08-30T16:17:07;98964.06;;;21.88;48.57
15817;BME280;8009;50.070;8.232;2023-08-30T16:30:04;98986.16;;;20.80;50.23
15817;BME280;8009;50.070;8.232;2023-08-30T16:32:33;98986.72;;;20.62;50.58
15817;BME280;8009;50.070;8.232;2023-08-30T16:35:06;99010.38;;;20.70;50.32
15817;BME280;8009;50.070;8.232;2023-08-30T16:37:35;99024.19;;;20.07;54.14
15817;BME280;8009;50.070;8.232;2023-08-30T16:40:04;99018.78;;;19.64;56.41
15817;BME280;8009;50.070;8.232;2023-08-30T16:42:32;99027.03;;;19.99;58.28
15817;BME280;8009;50.070;8.232;2023-08-30T16:45:04;99028.81;;;19.14;61.65
15817;BME280;8009;50.070;8.232;2023-08-30T16:47:34;99034.44;;;19.28;63.03
15817;BME280;8009;50.070;8.232;2023-08-30T16:50:08;99040.84;;;18.03;69.21
15817;BME280;8009;50.070;8.232;2023-08-30T16:52:37;99041.69;;;17.89;71.50
15817;BME280;8009;50.070;8.232;2023-08-30T16:55:08;99046.81;;;18.36;70.70
15817;BME280;8009;50.070;8.232;2023-08-30T16:57:57;99043.00;;;18.82;69.74
15817;BME280;8009;50.070;8.232;2023-08-30T17:00:28;99051.00;;;18.68;70.89
15817;BME280;8009;50.070;8.232;2023-08-30T17:02:58;99054.69;;;18.31;71.77
15817;BME280;8009;50.070;8.232;2023-08-30T17:09:04;99052.75;;;18.40;73.15
15817;BME280;8009;50.070;8.232;2023-08-30T17:11:33;99057.88;;;19.15;69.44
15817;BME280;8009;50.070;8.232;2023-08-30T17:14:03;99065.25;;;18.79;70.51
15817;BME280;8009;50.070;8.232;2023-08-30T17:16:50;99063.13;;;18.95;71.51
15817;BME280;8009;50.070;8.232;2023-08-30T17:22:38;99054.63;;;19.27;69.99
15817;BME280;8009;50.070;8.232;2023-08-30T17:28:26;99052.56;;;18.92;71.57
15817;BME280;8009;50.070;8.232;2023-08-30T17:34:15;99053.84;;;18.75;71.95
15817;BME280;8009;50.070;8.232;2023-08-30T17:36:45;99051.56;;;18.64;72.99
15817;BME280;8009;50.070;8.232;2023-08-30T17:39:34;99040.28;;;18.52;71.86
15817;BME280;8009;50.070;8.232;2023-08-30T17:42:04;99045.75;;;18.08;74.68
15817;BME280;8009;50.070;8.232;2023-08-30T17:44:51;99052.38;;;18.28;74.02
15817;BME280;8009;50.070;8.232;2023-08-30T17:47:19;99060.81;;;18.18;73.62
15817;BME280;8009;50.070;8.232;2023-08-30T17:49:54;99064.88;;;17.47;75.38
15817;BME280;8009;50.070;8.232;2023-08-30T17:55:58;99097.56;;;17.55;75.67
15817;BME280;8009;50.070;8.232;2023-08-30T17:58:29;99090.78;;;17.51;77.93
15817;BME280;8009;50.070;8.232;2023-08-30T18:03:52;99089.81;;;17.90;74.29
15817;BME280;8009;50.070;8.232;2023-08-30T18:06:26;99095.16;;;17.60;76.39
15817;BME280;8009;50.070;8.232;2023-08-30T18:08:56;99108.38;;;17.71;74.42
15817;BME280;8009;50.070;8.232;2023-08-30T18:11:25;99105.41;;;17.81;75.38
15817;BME280;8009;50.070;8.232;2023-08-30T18:13:55;99121.91;;;17.88;75.84
15817;BME280;8009;50.070;8.232;2023-08-30T18:16:25;99125.97;;;17.92;76.09
15817;BME280;8009;50.070;8.232;2023-08-30T18:18:54;99144.09;;;17.39;76.45
15817;BME280;8009;50.070;8.232;2023-08-30T18:31:06;99119.84;;;17.90;77.06
15817;BME280;8009;50.070;8.232;2023-08-30T18:36:15;99123.88;;;18.32;74.94
15817;BME280;8009;50.070;8.232;2023-08-30T18:38:44;99128.84;;;18.43;75.04
15817;BME280;8009;50.070;8.232;2023-08-30T18:41:12;99128.59;;;18.52;74.01
15817;BME280;8009;50.070;8.232;2023-08-30T18:43:45;99137.59;;;18.23;75.40
15817;BME280;8009;50.070;8.232;2023-08-30T18:46:17;99125.16;;;18.06;74.41
15817;BME280;8009;50.070;8.232;2023-08-30T18:58:26;99141.13;;;16.86;76.66
15817;BME280;8009;50.070;8.232;2023-08-30T19:00:57;99133.59;;;16.96;79.20
15817;BME280;8009;50.070;8.232;2023-08-30T19:03:30;99135.16;;;17.76;73.77
15817;BME280;8009;50.070;8.232;2023-08-30T19:05:59;99140.19;;;17.10;78.11
15817;BME280;8009;50.070;8.232;2023-08-30T19:08:30;99131.81;;;16.72;77.41
15817;BME280;8009;50.070;8.232;2023-08-30T19:11:01;99131.47;;;17.38;73.67
15817;BME280;8009;50.070;8.232;2023-08-30T19:13:34;99132.03;;;17.33;74.07
15817;BME280;8009;50.070;8.232;2023-08-30T19:19:26;99141.75;;;16.57;76.49
15817;BME280;8009;50.070;8.232;2023-08-30T19:21:56;99151.56;;;16.74;77.68